sensor_id;sensor_type;location;lat;lon;timestamp;P1;durP1;ratioP1;P2;durP2;ratioP2
51654;SDS011;37732;53.106;7.030;2023-07-24T00:00:20;12.82;;;7.68;;
51654;SDS011;37732;53.106;7.030;2023-07-24T00:02:46;10.05;;;6.85;;
51654;SDS011;37732;53.106;7.030;2023-07-24T00:05:12;9.05;;;7.05;;
51654;SDS011;37732;53.106;7.030;2023-07-24T00:07:37;11.02;;;6.90;;
51654;SDS011;37732;53.106;7.030;2023-07-24T00:10:04;9.88;;;7.45;;
51654;SDS011;37732;53.106;7.030;2023-07-24T00:12:30;11.07;;;7.47;;
51654;SDS011;37732;53.106;7.030;2023-07-24T00:14:55;9.80;;;7.72;;
51654;SDS011;37732;53.106;7.030;2023-07-24T00:17:21;10.98;;;7.63;;
51654;SDS011;37732;53.106;7.030;2023-07-24T00:19:47;10.45;;;8.10;;
51654;SDS011;37732;53.106;7.030;2023-07-24T00:22:14;12.73;;;8.85;;
51654;SDS011;37732;53.106;7.030;2023-07-24T00:24:39;11.45;;;7.75;;
51654;SDS011;37732;53.106;7.030;2023-07-24T00:27:05;12.10;;;7.68;;
51654;SDS011;37732;53.106;7.030;2023-07-24T00:29:31;12.30;;;8.20;;
51654;SDS011;37732;53.106;7.030;2023-07-24T00:31:57;11.77;;;8.23;;
51654;SDS011;37732;53.106;7.030;2023-07-24T00:34:22;10.30;;;7.85;;
51654;SDS011;37732;53.106;7.030;2023-07-24T00:36:49;12.40;;;8.20;;
51654;SDS011;37732;53.106;7.030;2023-07-24T00:39:15;12.25;;;7.97;;
51654;SDS011;37732;53.106;7.030;2023-07-24T00:41:41;12.10;;;8.13;;
51654;SDS011;37732;53.106;7.030;2023-07-24T00:44:07;11.77;;;8.27;;
51654;SDS011;37732;53.106;7.030;2023-07-24T00:46:33;11.55;;;8.25;;
51654;SDS011;37732;53.106;7.030;2023-07-24T00:49:00;11.88;;;8.48;;
51654;SDS011;37732;53.106;7.030;2023-07-24T00:51:30;12.25;;;8.80;;
51654;SDS011;37732;53.106;7.030;2023-07-24T00:54:00;15.75;;;10.25;;
51654;SDS011;37732;53.106;7.030;2023-07-24T00:56:27;12.88;;;8.30;;
51654;SDS011;37732;53.106;7.030;2023-07-24T00:58:55;13.35;;;9.15;;
51654;SDS011;37732;53.106;7.030;2023-07-24T01:03:57;11.77;;;8.95;;
51654;SDS011;37732;53.106;7.030;2023-07-24T01:06:23;12.60;;;9.15;;
51654;SDS011;37732;53.106;7.030;2023-07-24T01:08:49;13.73;;;8.35;;
51654;SDS011;37732;53.106;7.030;2023-07-24T01:11:16;12.63;;;8.93;;
51654;SDS011;37732;53.106;7.030;2023-07-24T01:14:36;13.27;;;9.35;;
51654;SDS011;37732;53.106;7.030;2023-07-24T01:16:40;12.43;;;9.25;;
51654;SDS011;37732;53.106;7.030;2023-07-24T01:25:05;12.88;;;10.10;;
51654;SDS011;37732;53.106;7.030;2023-07-24T01:27:44;17.25;;;12.88;;
51654;SDS011;37732;53.106;7.030;2023-07-24T01:30:11;13.20;;;11.55;;
51654;SDS011;37732;53.106;7.030;2023-07-24T01:32:39;18.00;;;12.88;;
51654;SDS011;37732;53.106;7.030;2023-07-24T01:35:05;15.05;;;12.55;;
51654;SDS011;37732;53.106;7.030;2023-07-24T01:37:31;15.75;;;11.43;;
51654;SDS011;37732;53.106;7.030;2023-07-24T01:40:00;16.27;;;13.63;;
51654;SDS011;37732;53.106;7.030;2023-07-24T01:42:28;16.88;;;13.85;;
51654;SDS011;37732;53.106;7.030;2023-07-24T01:44:54;17.25;;;14.20;;
51654;SDS011;37732;53.106;7.030;2023-07-24T01:47:21;16.58;;;14.38;;
51654;SDS011;37732;53.106;7.030;2023-07-24T01:49:47;18.05;;;15.20;;
51654;SDS011;37732;53.106;7.030;2023-07-24T01:52:13;17.58;;;15.70;;
51654;SDS011;37732;53.106;7.030;2023-07-24T01:54:39;17.58;;;15.68;;
51654;SDS011;37732;53.106;7.030;2023-07-24T01:57:04;17.55;;;14.30;;
51654;SDS011;37732;53.106;7.030;2023-07-24T01:59:30;17.08;;;15.05;;
51654;SDS011;37732;53.106;7.030;2023-07-24T02:01:58;20.75;;;17.40;;
51654;SDS011;37732;53.106;7.030;2023-07-24T02:04:23;17.63;;;14.07;;
51654;SDS011;37732;53.106;7.030;2023-07-24T02:06:49;18.33;;;16.48;;
51654;SDS011;37732;53.106;7.030;2023-07-24T02:09:15;17.33;;;15.52;;
51654;SDS011;37732;53.106;7.030;2023-07-24T02:11:43;20.15;;;18.13;;
51654;SDS011;37732;53.106;7.030;2023-07-24T02:14:09;19.48;;;17.42;;
51654;SDS011;37732;53.106;7.030;2023-07-24T02:16:35;19.88;;;16.83;;
51654;SDS011;37732;53.106;7.030;2023-07-24T02:19:02;17.85;;;16.00;;
51654;SDS011;37732;53.106;7.030;2023-07-24T02:21:28;17.52;;;15.75;;
51654;SDS011;37732;53.106;7.030;2023-07-24T02:23:54;18.20;;;16.30;;
51654;SDS011;37732;53.106;7.030;2023-07-24T02:26:20;17.52;;;15.00;;
51654;SDS011;37732;53.106;7.030;2023-07-24T02:28:45;18.33;;;15.63;;
51654;SDS011;37732;53.106;7.030;2023-07-24T02:31:11;19.77;;;17.70;;
51654;SDS011;37732;53.106;7.030;2023-07-24T02:33:37;18.50;;;16.60;;
51654;SDS011;37732;53.106;7.030;2023-07-24T02:36:04;17.60;;;15.80;;
51654;SDS011;37732;53.106;7.030;2023-07-24T02:38:29;16.52;;;14.77;;
51654;SDS011;37732;53.106;7.030;2023-07-24T02:40:55;17.02;;;15.23;;
51654;SDS011;37732;53.106;7.030;2023-07-24T02:43:21;19.63;;;15.65;;
51654;SDS011;37732;53.106;7.030;2023-07-24T02:45:46;19.60;;;15.85;;
51654;SDS011;37732;53.106;7.030;2023-07-24T02:48:12;18.63;;;15.77;;
51654;SDS011;37732;53.106;7.030;2023-07-24T02:50:38;17.77;;;15.93;;
51654;SDS011;37732;53.106;7.030;2023-07-24T02:53:04;17.23;;;15.52;;
51654;SDS011;37732;53.106;7.030;2023-07-24T02:55:29;15.45;;;13.88;;
51654;SDS011;37732;53.106;7.030;2023-07-24T02:57:55;18.70;;;16.75;;
51654;SDS011;37732;53.106;7.030;2023-07-24T03:00:21;17.58;;;15.77;;
51654;SDS011;37732;53.106;7.030;2023-07-24T03:02:47;17.45;;;15.65;;
51654;SDS011;37732;53.106;7.030;2023-07-24T03:05:12;18.85;;;15.73;;
51654;SDS011;37732;53.106;7.030;2023-07-24T03:07:38;18.27;;;15.95;;
51654;SDS011;37732;53.106;7.030;2023-07-24T03:10:04;17.02;;;15.25;;
51654;SDS011;37732;53.106;7.030;2023-07-24T03:12:30;18.15;;;15.40;;
51654;SDS011;37732;53.106;7.030;2023-07-24T03:14:55;16.30;;;14.57;;
51654;SDS011;37732;53.106;7.030;2023-07-24T03:17:22;17.80;;;14.93;;
51654;SDS011;37732;53.106;7.030;2023-07-24T03:19:48;16.50;;;14.80;;
51654;SDS011;37732;53.106;7.030;2023-07-24T03:22:14;17.27;;;15.40;;
51654;SDS011;37732;53.106;7.030;2023-07-24T03:24:43;16.00;;;14.40;;
51654;SDS011;37732;53.106;7.030;2023-07-24T03:27:09;14.50;;;13.00;;
51654;SDS011;37732;53.106;7.030;2023-07-24T03:29:35;15.02;;;13.40;;
51654;SDS011;37732;53.106;7.030;2023-07-24T03:32:02;16.00;;;14.30;;
51654;SDS011;37732;53.106;7.030;2023-07-24T03:34:28;17.83;;;14.77;;
51654;SDS011;37732;53.106;7.030;2023-07-24T03:36:54;18.13;;;14.63;;
51654;SDS011;37732;53.106;7.030;2023-07-24T03:39:19;15.07;;;13.25;;
51654;SDS011;37732;53.106;7.030;2023-07-24T03:41:45;15.13;;;13.57;;
51654;SDS011;37732;53.106;7.030;2023-07-24T03:44:11;14.93;;;12.90;;
51654;SDS011;37732;53.106;7.030;2023-07-24T03:46:36;19.35;;;15.52;;
51654;SDS011;37732;53.106;7.030;2023-07-24T03:49:02;14.80;;;12.57;;
51654;SDS011;37732;53.106;7.030;2023-07-24T03:51:28;16.10;;;13.60;;
51654;SDS011;37732;53.106;7.030;2023-07-24T03:53:53;13.98;;;12.50;;
51654;SDS011;37732;53.106;7.030;2023-07-24T03:56:19;14.73;;;12.77;;
51654;SDS011;37732;53.106;7.030;2023-07-24T03:58:45;16.85;;;14.70;;
51654;SDS011;37732;53.106;7.030;2023-07-24T04:01:10;12.88;;;11.38;;
51654;SDS011;37732;53.106;7.030;2023-07-24T04:03:36;13.05;;;11.65;;
51654;SDS011;37732;53.106;7.030;2023-07-24T04:06:02;13.55;;;12.05;;
51654;SDS011;37732;53.106;7.030;2023-07-24T04:08:28;13.45;;;11.65;;
51654;SDS011;37732;53.106;7.030;2023-07-24T04:10:54;14.85;;;12.55;;
51654;SDS011;37732;53.106;7.030;2023-07-24T04:13:21;12.98;;;11.55;;
51654;SDS011;37732;53.106;7.030;2023-07-24T04:15:47;13.55;;;11.07;;
51654;SDS011;37732;53.106;7.030;2023-07-24T04:18:13;14.73;;;12.75;;
51654;SDS011;37732;53.106;7.030;2023-07-24T04:20:38;12.57;;;11.27;;
51654;SDS011;37732;53.106;7.030;2023-07-24T04:23:04;13.57;;;12.05;;
51654;SDS011;37732;53.106;7.030;2023-07-24T04:25:30;16.60;;;13.30;;
51654;SDS011;37732;53.106;7.030;2023-07-24T04:27:56;14.25;;;11.73;;
51654;SDS011;37732;53.106;7.030;2023-07-24T04:30:21;17.23;;;12.10;;
51654;SDS011;37732;53.106;7.030;2023-07-24T04:32:47;12.25;;;11.00;;
51654;SDS011;37732;53.106;7.030;2023-07-24T04:35:13;12.63;;;10.98;;
51654;SDS011;37732;53.106;7.030;2023-07-24T04:37:38;15.27;;;12.68;;
51654;SDS011;37732;53.106;7.030;2023-07-24T04:40:04;13.65;;;11.25;;
51654;SDS011;37732;53.106;7.030;2023-07-24T04:42:30;14.45;;;12.90;;
51654;SDS011;37732;53.106;7.030;2023-07-24T04:44:56;12.95;;;11.60;;
51654;SDS011;37732;53.106;7.030;2023-07-24T04:47:22;13.35;;;11.95;;
51654;SDS011;37732;53.106;7.030;2023-07-24T04:49:48;14.77;;;13.15;;
51654;SDS011;37732;53.106;7.030;2023-07-24T04:52:13;15.35;;;12.20;;
51654;SDS011;37732;53.106;7.030;2023-07-24T04:54:39;15.32;;;13.07;;
51654;SDS011;37732;53.106;7.030;2023-07-24T04:57:05;12.88;;;11.43;;
51654;SDS011;37732;53.106;7.030;2023-07-24T04:59:30;11.77;;;10.48;;
51654;SDS011;37732;53.106;7.030;2023-07-24T05:01:56;14.90;;;13.25;;
51654;SDS011;37732;53.106;7.030;2023-07-24T05:04:23;15.18;;;13.57;;
51654;SDS011;37732;53.106;7.030;2023-07-24T05:06:50;16.45;;;12.65;;
51654;SDS011;37732;53.106;7.030;2023-07-24T05:09:17;16.52;;;13.02;;
51654;SDS011;37732;53.106;7.030;2023-07-24T05:11:43;14.35;;;11.80;;
51654;SDS011;37732;53.106;7.030;2023-07-24T05:14:10;12.73;;;11.05;;
51654;SDS011;37732;53.106;7.030;2023-07-24T05:16:36;16.08;;;13.02;;
51654;SDS011;37732;53.106;7.030;2023-07-24T05:19:02;15.68;;;14.00;;
51654;SDS011;37732;53.106;7.030;2023-07-24T05:21:28;16.60;;;12.65;;
51654;SDS011;37732;53.106;7.030;2023-07-24T05:23:55;14.82;;;12.45;;
51654;SDS011;37732;53.106;7.030;2023-07-24T05:26:21;14.07;;;12.57;;
51654;SDS011;37732;53.106;7.030;2023-07-24T05:28:47;14.85;;;12.98;;
51654;SDS011;37732;53.106;7.030;2023-07-24T05:31:13;15.32;;;13.38;;
51654;SDS011;37732;53.106;7.030;2023-07-24T05:33:39;13.68;;;12.27;;
51654;SDS011;37732;53.106;7.030;2023-07-24T05:36:05;14.75;;;13.18;;
51654;SDS011;37732;53.106;7.030;2023-07-24T05:38:31;14.40;;;12.63;;
51654;SDS011;37732;53.106;7.030;2023-07-24T05:40:57;13.90;;;12.40;;
51654;SDS011;37732;53.106;7.030;2023-07-24T05:43:23;17.02;;;13.77;;
51654;SDS011;37732;53.106;7.030;2023-07-24T05:45:53;17.10;;;13.13;;
51654;SDS011;37732;53.106;7.030;2023-07-24T05:48:19;15.27;;;13.68;;
51654;SDS011;37732;53.106;7.030;2023-07-24T05:50:46;14.80;;;13.23;;
51654;SDS011;37732;53.106;7.030;2023-07-24T05:53:12;15.10;;;13.60;;
51654;SDS011;37732;53.106;7.030;2023-07-24T05:55:38;15.02;;;13.52;;
51654;SDS011;37732;53.106;7.030;2023-07-24T05:58:04;14.18;;;12.70;;
51654;SDS011;37732;53.106;7.030;2023-07-24T06:00:30;15.27;;;13.02;;
51654;SDS011;37732;53.106;7.030;2023-07-24T06:02:56;13.45;;;11.93;;
51654;SDS011;37732;53.106;7.030;2023-07-24T06:05:21;14.75;;;13.18;;
51654;SDS011;37732;53.106;7.030;2023-07-24T06:07:47;16.35;;;12.63;;
51654;SDS011;37732;53.106;7.030;2023-07-24T06:10:13;16.73;;;13.13;;
51654;SDS011;37732;53.106;7.030;2023-07-24T06:12:39;15.02;;;13.52;;
51654;SDS011;37732;53.106;7.030;2023-07-24T06:15:05;16.25;;;13.23;;
51654;SDS011;37732;53.106;7.030;2023-07-24T06:17:32;14.25;;;12.10;;
51654;SDS011;37732;53.106;7.030;2023-07-24T06:19:58;14.98;;;13.38;;
51654;SDS011;37732;53.106;7.030;2023-07-24T06:22:23;14.07;;;12.68;;
51654;SDS011;37732;53.106;7.030;2023-07-24T06:24:49;15.50;;;13.00;;
51654;SDS011;37732;53.106;7.030;2023-07-24T06:27:15;13.43;;;11.95;;
51654;SDS011;37732;53.106;7.030;2023-07-24T06:29:41;14.23;;;12.55;;
51654;SDS011;37732;53.106;7.030;2023-07-24T06:32:07;14.85;;;13.27;;
51654;SDS011;37732;53.106;7.030;2023-07-24T06:34:33;14.88;;;12.02;;
51654;SDS011;37732;53.106;7.030;2023-07-24T06:36:59;14.25;;;12.48;;
51654;SDS011;37732;53.106;7.030;2023-07-24T06:39:25;14.63;;;12.50;;
51654;SDS011;37732;53.106;7.030;2023-07-24T06:41:54;15.20;;;13.63;;
51654;SDS011;37732;53.106;7.030;2023-07-24T06:44:20;13.85;;;12.43;;
51654;SDS011;37732;53.106;7.030;2023-07-24T06:46:46;14.32;;;12.80;;
51654;SDS011;37732;53.106;7.030;2023-07-24T06:49:12;13.68;;;12.27;;
51654;SDS011;37732;53.106;7.030;2023-07-24T06:51:38;15.77;;;12.50;;
51654;SDS011;37732;53.106;7.030;2023-07-24T06:54:04;13.68;;;11.77;;
51654;SDS011;37732;53.106;7.030;2023-07-24T06:56:31;13.90;;;12.25;;
51654;SDS011;37732;53.106;7.030;2023-07-24T06:58:57;16.40;;;12.73;;
51654;SDS011;37732;53.106;7.030;2023-07-24T07:01:24;13.70;;;11.93;;
51654;SDS011;37732;53.106;7.030;2023-07-24T07:03:51;13.82;;;11.02;;
51654;SDS011;37732;53.106;7.030;2023-07-24T07:06:17;13.90;;;10.73;;
51654;SDS011;37732;53.106;7.030;2023-07-24T07:08:43;13.27;;;11.13;;
51654;SDS011;37732;53.106;7.030;2023-07-24T07:11:09;13.45;;;11.57;;
51654;SDS011;37732;53.106;7.030;2023-07-24T07:13:35;12.93;;;11.45;;
51654;SDS011;37732;53.106;7.030;2023-07-24T07:16:01;11.63;;;10.43;;
51654;SDS011;37732;53.106;7.030;2023-07-24T07:18:27;12.32;;;10.88;;
51654;SDS011;37732;53.106;7.030;2023-07-24T07:20:53;14.02;;;10.32;;
51654;SDS011;37732;53.106;7.030;2023-07-24T07:23:20;12.25;;;9.88;;
51654;SDS011;37732;53.106;7.030;2023-07-24T07:25:46;12.98;;;11.10;;
51654;SDS011;37732;53.106;7.030;2023-07-24T07:28:13;12.45;;;10.82;;
51654;SDS011;37732;53.106;7.030;2023-07-24T07:30:39;14.20;;;10.20;;
51654;SDS011;37732;53.106;7.030;2023-07-24T07:33:05;11.75;;;10.20;;
51654;SDS011;37732;53.106;7.030;2023-07-24T07:35:32;12.82;;;10.00;;
51654;SDS011;37732;53.106;7.030;2023-07-24T07:37:58;12.88;;;10.18;;
51654;SDS011;37732;53.106;7.030;2023-07-24T07:40:24;11.98;;;10.23;;
51654;SDS011;37732;53.106;7.030;2023-07-24T07:42:52;13.07;;;10.85;;
51654;SDS011;37732;53.106;7.030;2023-07-24T07:45:21;14.75;;;10.55;;
51654;SDS011;37732;53.106;7.030;2023-07-24T07:47:48;13.75;;;11.05;;
51654;SDS011;37732;53.106;7.030;2023-07-24T07:50:14;13.77;;;10.52;;
51654;SDS011;37732;53.106;7.030;2023-07-24T07:52:40;13.15;;;10.55;;
51654;SDS011;37732;53.106;7.030;2023-07-24T07:55:06;13.35;;;10.63;;
51654;SDS011;37732;53.106;7.030;2023-07-24T07:57:36;17.88;;;11.85;;
51654;SDS011;37732;53.106;7.030;2023-07-24T08:00:04;12.68;;;9.88;;
51654;SDS011;37732;53.106;7.030;2023-07-24T08:02:33;13.88;;;9.77;;
51654;SDS011;37732;53.106;7.030;2023-07-24T08:04:59;13.30;;;11.02;;
51654;SDS011;37732;53.106;7.030;2023-07-24T08:07:25;17.58;;;11.55;;
51654;SDS011;37732;53.106;7.030;2023-07-24T08:09:51;15.07;;;9.98;;
51654;SDS011;37732;53.106;7.030;2023-07-24T08:12:17;13.15;;;11.07;;
51654;SDS011;37732;53.106;7.030;2023-07-24T08:14:43;15.23;;;10.63;;
51654;SDS011;37732;53.106;7.030;2023-07-24T08:17:08;11.43;;;9.70;;
51654;SDS011;37732;53.106;7.030;2023-07-24T08:19:34;15.45;;;10.57;;
51654;SDS011;37732;53.106;7.030;2023-07-24T08:22:00;13.20;;;10.40;;
51654;SDS011;37732;53.106;7.030;2023-07-24T08:24:26;14.40;;;10.68;;
51654;SDS011;37732;53.106;7.030;2023-07-24T08:26:53;13.40;;;9.68;;
51654;SDS011;37732;53.106;7.030;2023-07-24T08:29:20;11.88;;;10.55;;
51654;SDS011;37732;53.106;7.030;2023-07-24T08:31:46;11.93;;;9.88;;
51654;SDS011;37732;53.106;7.030;2023-07-24T08:34:12;13.38;;;10.00;;
51654;SDS011;37732;53.106;7.030;2023-07-24T08:36:38;14.15;;;10.63;;
51654;SDS011;37732;53.106;7.030;2023-07-24T08:39:04;12.68;;;10.10;;
51654;SDS011;37732;53.106;7.030;2023-07-24T08:41:31;11.57;;;9.75;;
51654;SDS011;37732;53.106;7.030;2023-07-24T08:43:59;13.73;;;9.75;;
51654;SDS011;37732;53.106;7.030;2023-07-24T08:46:25;12.32;;;9.82;;
51654;SDS011;37732;53.106;7.030;2023-07-24T08:48:52;11.55;;;9.00;;
51654;SDS011;37732;53.106;7.030;2023-07-24T08:51:21;11.48;;;9.52;;
51654;SDS011;37732;53.106;7.030;2023-07-24T08:53:48;12.48;;;10.10;;
51654;SDS011;37732;53.106;7.030;2023-07-24T08:56:14;10.63;;;9.10;;
51654;SDS011;37732;53.106;7.030;2023-07-24T08:58:41;13.60;;;9.95;;
51654;SDS011;37732;53.106;7.030;2023-07-24T09:01:07;11.18;;;9.18;;
51654;SDS011;37732;53.106;7.030;2023-07-24T09:03:34;12.23;;;9.45;;
51654;SDS011;37732;53.106;7.030;2023-07-24T09:06:00;14.75;;;10.57;;
51654;SDS011;37732;53.106;7.030;2023-07-24T09:08:33;12.10;;;9.35;;
51654;SDS011;37732;53.106;7.030;2023-07-24T09:11:05;12.57;;;9.48;;
51654;SDS011;37732;53.106;7.030;2023-07-24T09:13:32;11.82;;;8.68;;
51654;SDS011;37732;53.106;7.030;2023-07-24T09:15:58;9.32;;;7.75;;
51654;SDS011;37732;53.106;7.030;2023-07-24T09:18:24;10.50;;;9.40;;
51654;SDS011;37732;53.106;7.030;2023-07-24T09:20:50;10.77;;;8.15;;
51654;SDS011;37732;53.106;7.030;2023-07-24T09:23:24;10.02;;;8.52;;
51654;SDS011;37732;53.106;7.030;2023-07-24T09:25:54;12.20;;;8.63;;
51654;SDS011;37732;53.106;7.030;2023-07-24T09:28:21;13.07;;;9.05;;
51654;SDS011;37732;53.106;7.030;2023-07-24T09:30:55;13.63;;;8.68;;
51654;SDS011;37732;53.106;7.030;2023-07-24T09:33:22;10.82;;;8.02;;
51654;SDS011;37732;53.106;7.030;2023-07-24T09:36:02;11.38;;;8.43;;
51654;SDS011;37732;53.106;7.030;2023-07-24T09:38:30;10.23;;;6.75;;
51654;SDS011;37732;53.106;7.030;2023-07-24T09:40:57;13.35;;;8.30;;
51654;SDS011;37732;53.106;7.030;2023-07-24T09:43:26;11.20;;;8.15;;
51654;SDS011;37732;53.106;7.030;2023-07-24T09:45:53;12.20;;;7.65;;
51654;SDS011;37732;53.106;7.030;2023-07-24T09:48:20;15.90;;;7.78;;
51654;SDS011;37732;53.106;7.030;2023-07-24T09:50:48;11.48;;;8.00;;
51654;SDS011;37732;53.106;7.030;2023-07-24T09:53:18;11.73;;;8.27;;
51654;SDS011;37732;53.106;7.030;2023-07-24T09:56:07;10.95;;;7.25;;
51654;SDS011;37732;53.106;7.030;2023-07-24T09:58:34;9.77;;;6.93;;
51654;SDS011;37732;53.106;7.030;2023-07-24T10:01:02;12.60;;;8.50;;
51654;SDS011;37732;53.106;7.030;2023-07-24T10:03:31;11.15;;;8.75;;
51654;SDS011;37732;53.106;7.030;2023-07-24T10:06:04;10.65;;;7.80;;
51654;SDS011;37732;53.106;7.030;2023-07-24T10:08:31;9.70;;;6.90;;
51654;SDS011;37732;53.106;7.030;2023-07-24T10:10:58;10.65;;;6.55;;
51654;SDS011;37732;53.106;7.030;2023-07-24T10:13:25;8.90;;;6.60;;
51654;SDS011;37732;53.106;7.030;2023-07-24T10:15:52;11.70;;;6.90;;
51654;SDS011;37732;53.106;7.030;2023-07-24T10:18:25;10.68;;;6.25;;
51654;SDS011;37732;53.106;7.030;2023-07-24T10:21:03;13.73;;;6.10;;
51654;SDS011;37732;53.106;7.030;2023-07-24T10:23:31;9.40;;;6.05;;
51654;SDS011;37732;53.106;7.030;2023-07-24T10:26:04;11.23;;;6.38;;
51654;SDS011;37732;53.106;7.030;2023-07-24T10:28:35;11.30;;;6.57;;
51654;SDS011;37732;53.106;7.030;2023-07-24T10:31:07;7.55;;;5.57;;
51654;SDS011;37732;53.106;7.030;2023-07-24T10:33:45;7.68;;;4.97;;
51654;SDS011;37732;53.106;7.030;2023-07-24T10:36:12;9.05;;;5.95;;
51654;SDS011;37732;53.106;7.030;2023-07-24T10:38:41;7.38;;;5.22;;
51654;SDS011;37732;53.106;7.030;2023-07-24T10:41:09;10.32;;;5.88;;
51654;SDS011;37732;53.106;7.030;2023-07-24T10:43:49;11.38;;;6.10;;
51654;SDS011;37732;53.106;7.030;2023-07-24T10:46:19;9.93;;;5.60;;
51654;SDS011;37732;53.106;7.030;2023-07-24T10:48:46;10.13;;;5.72;;
51654;SDS011;37732;53.106;7.030;2023-07-24T10:51:15;7.68;;;4.68;;
51654;SDS011;37732;53.106;7.030;2023-07-24T10:53:43;7.95;;;4.90;;
51654;SDS011;37732;53.106;7.030;2023-07-24T10:56:11;6.82;;;5.28;;
51654;SDS011;37732;53.106;7.030;2023-07-24T10:58:37;11.23;;;5.35;;
51654;SDS011;37732;53.106;7.030;2023-07-24T11:01:03;8.15;;;5.40;;
51654;SDS011;37732;53.106;7.030;2023-07-24T11:03:30;8.82;;;5.43;;
51654;SDS011;37732;53.106;7.030;2023-07-24T11:05:57;6.65;;;5.10;;
51654;SDS011;37732;53.106;7.030;2023-07-24T11:08:25;7.10;;;4.55;;
51654;SDS011;37732;53.106;7.030;2023-07-24T11:10:53;7.82;;;4.80;;
51654;SDS011;37732;53.106;7.030;2023-07-24T11:13:23;7.68;;;5.00;;
51654;SDS011;37732;53.106;7.030;2023-07-24T11:15:51;7.47;;;4.63;;
51654;SDS011;37732;53.106;7.030;2023-07-24T11:18:18;6.25;;;4.80;;
51654;SDS011;37732;53.106;7.030;2023-07-24T11:20:52;6.40;;;4.88;;
51654;SDS011;37732;53.106;7.030;2023-07-24T11:23:18;6.15;;;4.55;;
51654;SDS011;37732;53.106;7.030;2023-07-24T11:25:45;9.20;;;4.80;;
51654;SDS011;37732;53.106;7.030;2023-07-24T11:28:12;7.53;;;5.20;;
51654;SDS011;37732;53.106;7.030;2023-07-24T11:30:40;13.02;;;5.60;;
51654;SDS011;37732;53.106;7.030;2023-07-24T11:33:08;7.63;;;4.93;;
51654;SDS011;37732;53.106;7.030;2023-07-24T11:35:39;7.93;;;5.00;;
51654;SDS011;37732;53.106;7.030;2023-07-24T11:38:07;6.43;;;4.78;;
51654;SDS011;37732;53.106;7.030;2023-07-24T11:40:35;9.73;;;5.32;;
51654;SDS011;37732;53.106;7.030;2023-07-24T11:43:27;8.98;;;5.53;;
51654;SDS011;37732;53.106;7.030;2023-07-24T11:45:53;8.85;;;4.63;;
51654;SDS011;37732;53.106;7.030;2023-07-24T11:48:23;7.45;;;4.88;;
51654;SDS011;37732;53.106;7.030;2023-07-24T11:50:51;9.30;;;5.30;;
51654;SDS011;37732;53.106;7.030;2023-07-24T11:55:54;8.57;;;4.88;;
51654;SDS011;37732;53.106;7.030;2023-07-24T11:58:25;8.38;;;5.38;;
51654;SDS011;37732;53.106;7.030;2023-07-24T12:00:51;7.43;;;4.70;;
51654;SDS011;37732;53.106;7.030;2023-07-24T12:03:20;8.95;;;5.85;;
51654;SDS011;37732;53.106;7.030;2023-07-24T12:05:48;8.50;;;5.80;;
51654;SDS011;37732;53.106;7.030;2023-07-24T12:08:15;8.85;;;4.93;;
51654;SDS011;37732;53.106;7.030;2023-07-24T12:10:42;8.02;;;5.65;;
51654;SDS011;37732;53.106;7.030;2023-07-24T12:13:09;9.02;;;6.18;;
51654;SDS011;37732;53.106;7.030;2023-07-24T12:15:34;10.88;;;6.45;;
51654;SDS011;37732;53.106;7.030;2023-07-24T12:18:01;10.45;;;6.40;;
51654;SDS011;37732;53.106;7.030;2023-07-24T12:20:27;11.02;;;5.65;;
51654;SDS011;37732;53.106;7.030;2023-07-24T12:22:54;7.85;;;5.05;;
51654;SDS011;37732;53.106;7.030;2023-07-24T12:25:20;12.35;;;6.00;;
51654;SDS011;37732;53.106;7.030;2023-07-24T12:27:47;8.82;;;5.72;;
51654;SDS011;37732;53.106;7.030;2023-07-24T12:30:13;10.35;;;5.47;;
51654;SDS011;37732;53.106;7.030;2023-07-24T12:32:39;10.93;;;6.20;;
51654;SDS011;37732;53.106;7.030;2023-07-24T12:35:07;8.25;;;5.03;;
51654;SDS011;37732;53.106;7.030;2023-07-24T12:37:33;9.77;;;5.38;;
51654;SDS011;37732;53.106;7.030;2023-07-24T12:39:59;10.95;;;6.97;;
51654;SDS011;37732;53.106;7.030;2023-07-24T12:42:25;12.32;;;5.78;;
51654;SDS011;37732;53.106;7.030;2023-07-24T12:44:52;7.45;;;4.82;;
51654;SDS011;37732;53.106;7.030;2023-07-24T12:47:18;8.38;;;5.65;;
51654;SDS011;37732;53.106;7.030;2023-07-24T12:49:45;8.07;;;5.15;;
51654;SDS011;37732;53.106;7.030;2023-07-24T12:52:11;9.50;;;5.47;;
51654;SDS011;37732;53.106;7.030;2023-07-24T12:54:38;12.30;;;4.82;;
51654;SDS011;37732;53.106;7.030;2023-07-24T12:57:04;6.18;;;5.18;;
51654;SDS011;37732;53.106;7.030;2023-07-24T12:59:31;8.27;;;5.63;;
51654;SDS011;37732;53.106;7.030;2023-07-24T13:01:57;7.82;;;5.05;;
51654;SDS011;37732;53.106;7.030;2023-07-24T13:04:24;8.98;;;5.35;;
51654;SDS011;37732;53.106;7.030;2023-07-24T13:06:50;9.18;;;6.07;;
51654;SDS011;37732;53.106;7.030;2023-07-24T13:09:17;9.57;;;5.28;;
51654;SDS011;37732;53.106;7.030;2023-07-24T13:11:44;7.18;;;4.95;;
51654;SDS011;37732;53.106;7.030;2023-07-24T13:14:14;7.47;;;5.10;;
51654;SDS011;37732;53.106;7.030;2023-07-24T13:16:41;8.93;;;5.60;;
51654;SDS011;37732;53.106;7.030;2023-07-24T13:19:08;9.80;;;6.20;;
51654;SDS011;37732;53.106;7.030;2023-07-24T13:21:35;10.82;;;6.43;;
51654;SDS011;37732;53.106;7.030;2023-07-24T13:24:00;10.07;;;4.03;;
51654;SDS011;37732;53.106;7.030;2023-07-24T13:26:28;12.18;;;4.60;;
51654;SDS011;37732;53.106;7.030;2023-07-24T13:28:54;12.35;;;5.18;;
51654;SDS011;37732;53.106;7.030;2023-07-24T13:31:21;11.07;;;5.82;;
51654;SDS011;37732;53.106;7.030;2023-07-24T13:33:49;8.35;;;5.10;;
51654;SDS011;37732;53.106;7.030;2023-07-24T13:36:15;10.35;;;6.47;;
51654;SDS011;37732;53.106;7.030;2023-07-24T13:38:41;7.47;;;5.05;;
51654;SDS011;37732;53.106;7.030;2023-07-24T13:41:07;11.63;;;7.05;;
51654;SDS011;37732;53.106;7.030;2023-07-24T13:43:33;10.65;;;5.95;;
51654;SDS011;37732;53.106;7.030;2023-07-24T13:45:59;8.20;;;5.03;;
51654;SDS011;37732;53.106;7.030;2023-07-24T13:48:27;9.70;;;6.40;;
51654;SDS011;37732;53.106;7.030;2023-07-24T13:50:54;8.45;;;5.65;;
51654;SDS011;37732;53.106;7.030;2023-07-24T13:53:20;7.07;;;5.25;;
51654;SDS011;37732;53.106;7.030;2023-07-24T13:55:47;8.10;;;5.25;;
51654;SDS011;37732;53.106;7.030;2023-07-24T13:58:13;6.82;;;5.60;;
51654;SDS011;37732;53.106;7.030;2023-07-24T14:00:40;7.68;;;5.38;;
51654;SDS011;37732;53.106;7.030;2023-07-24T14:03:06;7.65;;;5.60;;
51654;SDS011;37732;53.106;7.030;2023-07-24T14:05:33;6.72;;;5.13;;
51654;SDS011;37732;53.106;7.030;2023-07-24T14:08:01;11.98;;;6.50;;
51654;SDS011;37732;53.106;7.030;2023-07-24T14:10:27;8.88;;;5.85;;
51654;SDS011;37732;53.106;7.030;2023-07-24T14:12:53;7.68;;;5.60;;
51654;SDS011;37732;53.106;7.030;2023-07-24T14:15:19;7.13;;;5.40;;
51654;SDS011;37732;53.106;7.030;2023-07-24T14:17:45;7.38;;;5.82;;
51654;SDS011;37732;53.106;7.030;2023-07-24T14:20:11;9.73;;;5.47;;
51654;SDS011;37732;53.106;7.030;2023-07-24T14:22:38;10.02;;;6.53;;
51654;SDS011;37732;53.106;7.030;2023-07-24T14:25:05;9.68;;;6.30;;
51654;SDS011;37732;53.106;7.030;2023-07-24T14:27:32;7.88;;;5.97;;
51654;SDS011;37732;53.106;7.030;2023-07-24T14:29:58;8.05;;;5.22;;
51654;SDS011;37732;53.106;7.030;2023-07-24T14:32:24;6.68;;;5.55;;
51654;SDS011;37732;53.106;7.030;2023-07-24T14:34:51;7.03;;;5.32;;
51654;SDS011;37732;53.106;7.030;2023-07-24T14:37:18;6.25;;;5.22;;
51654;SDS011;37732;53.106;7.030;2023-07-24T14:39:44;7.72;;;5.53;;